Time;durP1;ratioP1;P1;durP2;ratioP2;P2;SDS_P1;SDS_P2;PMS_P1;PMS_P2;Temp;Humidity;BMP_temperature;BMP_pressure;BME280_temperature;BME280_humidity;BME280_pressure;Samples;Min_cycle;Max_cycle;Signal;HPM_P1;HPM_P2
2023/07/02 00:01:29;;;;;;;10.05;6.38;;;;;;;20.30;64.61;94012.91;4199713;28;20422;-57
2023/07/02 00:03:31;;;;;;;9.48;6.75;;;;;;;20.33;64.27;94012.47;4213156;28;20301;-59
2023/07/02 00:05:33;;;;;;;11.10;7.18;;;;;;;20.27;64.18;94016.06;4213237;28;20044;-58
2023/07/02 00:07:36;;;;;;;14.82;7.47;;;;;;;20.15;64.88;94021.41;4213171;28;20052;-58
2023/07/02 00:09:38;;;;;;;12.60;6.68;;;;;;;20.09;64.95;94016.22;4201639;28;20560;-57
2023/07/02 00:11:45;;;;;;;14.85;6.53;;;;;;;20.00;65.34;94013.94;4211493;28;20050;-55
2023/07/02 00:13:47;;;;;;;12.40;7.20;;;;;;;19.99;65.32;94008.84;4211168;28;20063;-57
2023/07/02 00:15:49;;;;;;;10.00;6.90;;;;;;;20.00;65.50;94008.63;4213524;28;20417;-57
2023/07/02 00:17:50;;;;;;;10.27;6.93;;;;;;;20.05;65.33;94007.91;4209426;28;20105;-56
2023/07/02 00:19:52;;;;;;;10.30;6.95;;;;;;;20.12;64.91;94003.25;4210880;28;20097;-59
2023/07/02 00:21:55;;;;;;;11.75;7.28;;;;;;;20.18;64.91;93999.66;4212795;28;20559;-57
2023/07/02 00:23:58;;;;;;;11.70;7.10;;;;;;;20.27;64.71;94002.75;4212898;28;20115;-56
2023/07/02 00:25:59;;;;;;;12.13;7.35;;;;;;;20.17;64.57;93999.91;4211078;28;20059;-57
2023/07/02 00:28:01;;;;;;;11.90;7.53;;;;;;;20.17;64.94;94007.88;4212574;28;20044;-55
2023/07/02 00:30:03;;;;;;;11.27;7.00;;;;;;;20.09;64.89;94011.72;4212337;28;20391;-57
2023/07/02 00:32:05;;;;;;;10.20;6.85;;;;;;;20.01;65.38;94009.41;4213458;28;20476;-57
2023/07/02 00:34:07;;;;;;;12.93;7.45;;;;;;;19.96;65.65;94017.28;4211133;28;20055;-58
2023/07/02 00:36:14;;;;;;;11.80;7.00;;;;;;;19.99;65.58;94017.63;4210807;28;20105;-60
2023/07/02 00:38:16;;;;;;;9.75;7.20;;;;;;;20.06;65.55;94028.13;4212687;28;20063;-56
2023/07/02 00:40:17;;;;;;;12.52;6.75;;;;;;;20.02;65.92;94019.78;4212029;28;20048;-58
2023/07/02 00:42:20;;;;;;;14.63;7.15;;;;;;;19.92;66.50;94027.59;4208062;28;20422;-59
2023/07/02 00:44:21;;;;;;;9.77;7.15;;;;;;;19.86;67.09;94027.72;4209331;28;20043;-57
2023/07/02 00:46:27;;;;;;;11.77;7.20;;;;;;;19.77;67.51;94032.56;4212186;28;20060;-57
2023/07/02 00:48:29;;;;;;;10.40;7.43;;;;;;;19.75;67.58;94032.78;4209182;28;20055;-60
2023/07/02 00:50:31;;;;;;;9.85;7.47;;;;;;;19.68;67.95;94032.09;4209637;28;20055;-58
2023/07/02 00:52:33;;;;;;;11.25;6.30;;;;;;;19.71;67.34;94041.47;4208571;28;20052;-55
2023/07/02 00:54:35;;;;;;;14.52;8.30;;;;;;;19.76;67.07;94036.25;4206926;28;20087;-59
2023/07/02 00:56:37;;;;;;;10.23;7.00;;;;;;;19.70;66.76;94023.88;4204855;28;20075;-59
2023/07/02 00:58:46;;;;;;;11.90;6.88;;;;;;;19.16;68.40;94029.25;4211967;28;20485;-58
2023/07/02 01:00:48;;;;;;;11.40;7.30;;;;;;;18.59;70.78;94021.69;4211370;28;20052;-60
2023/07/02 01:02:57;;;;;;;16.58;7.57;;;;;;;18.36;71.64;94023.19;4212802;28;20474;-59
2023/07/02 01:04:59;;;;;;;12.35;6.70;;;;;;;18.20;72.47;94016.69;4210360;28;20051;-57
2023/07/02 01:07:08;;;;;;;14.43;6.60;;;;;;;18.45;71.88;94021.03;4200003;28;20044;-56
2023/07/02 01:09:10;;;;;;;14.10;9.02;;;;;;;18.48;71.68;94014.50;4212439;28;20043;-57
2023/07/02 01:11:12;;;;;;;11.25;8.43;;;;;;;18.51;71.63;94008.75;4210548;28;20062;-57
2023/07/02 01:13:17;;;;;;;11.98;7.70;;;;;;;18.73;71.24;94019.66;4207628;28;20127;-58
2023/07/02 01:15:19;;;;;;;10.27;7.13;;;;;;;18.80;70.56;94025.72;4204974;28;20048;-57
2023/07/02 01:17:21;;;;;;;11.27;6.88;;;;;;;18.53;71.89;94018.09;4201057;28;20048;-58
2023/07/02 01:19:42;;;;;;;11.48;7.18;;;;;;;18.52;71.95;94011.19;4212264;28;20040;-57
2023/07/02 01:21:45;;;;;;;10.68;7.05;;;;;;;18.57;71.83;94013.16;4200811;28;20101;-56
2023/07/02 01:23:47;;;;;;;11.93;7.57;;;;;;;18.53;72.30;94009.31;4210948;28;20127;-57
2023/07/02 01:25:51;;;;;;;8.57;6.43;;;;;;;18.69;71.88;93998.09;4211005;28;20048;-57
2023/07/02 01:27:53;;;;;;;10.25;6.25;;;;;;;18.88;71.28;93984.75;4199473;28;20113;-58
2023/07/02 01:29:55;;;;;;;10.98;6.32;;;;;;;19.05;70.97;93985.72;4205032;28;20420;-59
2023/07/02 01:31:57;;;;;;;11.02;6.53;;;;;;;19.20;70.20;93987.94;4206674;28;20464;-58
2023/07/02 01:33:59;;;;;;;9.00;6.82;;;;;;;19.33;69.85;93985.06;4210191;28;20048;-58
2023/07/02 01:36:00;;;;;;;10.77;7.18;;;;;;;19.44;69.51;94000.19;4195341;28;20044;-59
2023/07/02 01:38:02;;;;;;;9.85;6.95;;;;;;;19.55;68.98;93992.44;4195654;28;20052;-59
2023/07/02 01:40:08;;;;;;;11.20;7.47;;;;;;;19.63;68.69;93990.25;4207736;28;20047;-57
2023/07/02 01:42:18;;;;;;;12.00;6.97;;;;;;;19.72;68.62;93998.69;4208045;28;20413;-59
2023/07/02 01:44:21;;;;;;;10.70;7.40;;;;;;;19.79;68.30;93993.28;4201329;28;20042;-59
2023/07/02 01:46:23;;;;;;;9.77;6.90;;;;;;;19.81;68.62;93992.00;4203218;28;20110;-58
2023/07/02 01:48:25;;;;;;;13.18;6.78;;;;;;;19.83;68.85;93991.75;4211235;28;20169;-59
2023/07/02 01:50:26;;;;;;;14.43;7.45;;;;;;;19.86;69.06;94001.94;4200607;28;20467;-60
2023/07/02 01:52:32;;;;;;;10.57;7.22;;;;;;;19.90;69.06;94002.28;4207744;28;20119;-60
2023/07/02 01:54:35;;;;;;;12.80;7.45;;;;;;;19.83;69.40;93976.63;4198895;28;20056;-59
2023/07/02 01:56:37;;;;;;;10.93;7.55;;;;;;;19.81;69.69;93981.38;4202987;28;20048;-60
2023/07/02 01:58:39;;;;;;;10.07;7.30;;;;;;;19.83;70.06;93987.25;4211698;28;20052;-59
2023/07/02 02:00:40;;;;;;;10.25;7.20;;;;;;;19.85;70.01;93989.66;4211702;28;20048;-59
2023/07/02 02:02:43;;;;;;;11.57;7.05;;;;;;;19.90;69.75;93978.34;4211059;28;20494;-60
2023/07/02 02:04:45;;;;;;;10.10;6.95;;;;;;;19.60;69.95;93958.03;4207173;28;20051;-56
2023/07/02 02:06:46;;;;;;;11.25;7.10;;;;;;;19.48;70.42;93979.28;4210058;28;20067;-58
2023/07/02 02:08:48;;;;;;;12.05;6.70;;;;;;;19.46;70.81;93986.66;4206722;28;20117;-58
2023/07/02 02:10:50;;;;;;;10.07;6.68;;;;;;;19.49;70.89;93980.91;4206467;28;20044;-56
2023/07/02 02:12:51;;;;;;;10.38;6.93;;;;;;;19.55;71.17;93974.69;4205961;28;20566;-59
2023/07/02 02:14:53;;;;;;;12.68;6.78;;;;;;;19.62;70.98;93982.53;4204807;28;20056;-59
2023/07/02 02:16:55;;;;;;;11.18;6.65;;;;;;;19.67;70.59;93968.53;4206066;28;20050;-60
2023/07/02 02:18:57;;;;;;;9.90;6.82;;;;;;;19.67;70.46;93969.34;4198003;28;20087;-58
2023/07/02 02:20:58;;;;;;;11.88;7.43;;;;;;;19.69;70.30;93974.44;4210034;28;20105;-59
2023/07/02 02:23:00;;;;;;;8.77;6.80;;;;;;;19.74;70.18;93970.03;4194870;28;20052;-59
2023/07/02 02:25:03;;;;;;;9.15;6.90;;;;;;;19.81;70.05;93968.09;4208630;28;20048;-59
2023/07/02 02:27:05;;;;;;;11.00;6.75;;;;;;;19.84;70.11;93966.81;4210172;28;20048;-56
2023/07/02 02:29:07;;;;;;;8.95;6.78;;;;;;;19.84;70.05;93966.81;4210427;28;20117;-59
2023/07/02 02:31:09;;;;;;;9.40;7.03;;;;;;;19.84;69.92;93956.16;4210632;28;20108;-60
2023/07/02 02:33:11;;;;;;;11.45;7.07;;;;;;;19.74;70.30;93947.97;4211546;28;20109;-61
2023/07/02 02:35:13;;;;;;;11.20;6.82;;;;;;;19.70;70.68;93960.91;4204364;28;20101;-58
2023/07/02 02:37:15;;;;;;;10.75;7.95;;;;;;;19.71;70.96;93953.78;4209332;28;20097;-59
2023/07/02 02:39:16;;;;;;;9.50;6.75;;;;;;;19.76;71.00;93959.19;4205803;28;20082;-59
2023/07/02 02:41:18;;;;;;;13.32;8.05;;;;;;;19.77;71.00;93958.16;4202323;28;20187;-58
2023/07/02 02:43:20;;;;;;;13.32;7.15;;;;;;;19.75;70.31;93952.28;4203055;28;20539;-60
2023/07/02 02:45:22;;;;;;;10.65;7.63;;;;;;;19.67;69.86;93941.97;4210804;28;20048;-60
2023/07/02 02:47:24;;;;;;;13.60;7.40;;;;;;;19.38;70.23;93947.16;4210819;28;20221;-59
2023/07/02 02:49:25;;;;;;;16.60;7.95;;;;;;;19.22;71.12;93961.97;4209066;28;20126;-59
2023/07/02 02:51:27;;;;;;;11.65;7.57;;;;;;;19.19;71.27;93963.22;4206028;28;20132;-57
2023/07/02 02:53:29;;;;;;;10.90;6.85;;;;;;;19.00;69.94;93972.34;4202312;28;20043;-58
2023/07/02 02:55:30;;;;;;;13.27;7.00;;;;;;;18.96;70.58;93982.59;4199488;28;20056;-59
2023/07/02 02:57:33;;;;;;;11.40;7.35;;;;;;;19.02;71.26;93972.91;4195703;28;20068;-56
2023/07/02 02:59:34;;;;;;;11.95;7.80;;;;;;;18.95;70.43;93981.00;4206006;28;20097;-57
2023/07/02 03:01:36;;;;;;;14.45;7.68;;;;;;;18.91;70.95;93984.34;4204650;28;20153;-58
2023/07/02 03:03:39;;;;;;;11.98;7.55;;;;;;;19.00;71.38;93967.81;4206442;28;20050;-56
2023/07/02 03:05:41;;;;;;;13.95;7.60;;;;;;;19.13;70.89;93966.81;4205245;28;20240;-58
2023/07/02 03:07:43;;;;;;;11.73;7.30;;;;;;;19.18;69.94;93974.88;4210509;28;20040;-57
2023/07/02 03:09:44;;;;;;;13.55;7.55;;;;;;;19.24;69.48;93967.84;4209343;28;20056;-56
2023/07/02 03:11:47;;;;;;;13.73;7.50;;;;;;;19.33;69.41;93970.97;4206352;28;20656;-56
2023/07/02 03:13:49;;;;;;;14.13;7.35;;;;;;;19.38;69.13;93961.28;4202792;28;20052;-57
2023/07/02 03:15:51;;;;;;;13.98;7.80;;;;;;;19.40;69.29;93966.34;4210325;28;20060;-59
2023/07/02 03:17:52;;;;;;;14.73;7.55;;;;;;;19.49;68.99;93967.63;4210212;28;20055;-57
2023/07/02 03:19:54;;;;;;;11.15;6.38;;;;;;;19.59;69.03;93975.81;4210451;28;20044;-57
2023/07/02 03:21:55;;;;;;;11.63;6.75;;;;;;;19.68;68.65;93980.75;4203077;28;20051;-56
2023/07/02 03:23:57;;;;;;;12.38;8.27;;;;;;;19.78;68.28;93986.34;4209720;28;20108;-56
2023/07/02 03:25:59;;;;;;;11.00;7.00;;;;;;;19.83;67.67;93997.91;4208652;28;20060;-57
2023/07/02 03:28:01;;;;;;;12.68;7.05;;;;;;;19.90;67.43;94003.09;4209981;28;20055;-58
2023/07/02 03:30:03;;;;;;;12.48;7.90;;;;;;;19.93;66.52;94005.25;4208174;28;20154;-59
2023/07/02 03:32:05;;;;;;;11.90;7.03;;;;;;;19.95;66.67;93997.88;4206506;28;20044;-60
2023/07/02 03:34:09;;;;;;;13.38;7.35;;;;;;;20.00;66.39;94003.31;4203576;28;20486;-59
2023/07/02 03:36:10;;;;;;;15.55;7.18;;;;;;;20.04;65.73;93993.78;4213153;28;20117;-58
2023/07/02 03:38:12;;;;;;;14.68;7.15;;;;;;;20.10;65.71;93993.91;4212277;28;20048;-58
2023/07/02 03:40:14;;;;;;;8.93;6.60;;;;;;;20.14;65.80;93992.41;4213872;28;20236;-58
2023/07/02 03:42:16;;;;;;;11.48;7.38;;;;;;;20.14;66.21;93995.06;4213521;28;20040;-57
2023/07/02 03:44:19;;;;;;;12.32;7.22;;;;;;;20.18;66.14;93998.88;4206638;28;20052;-59
2023/07/02 03:46:21;;;;;;;10.77;7.47;;;;;;;20.19;65.94;93997.81;4203841;28;20059;-58
2023/07/02 03:48:22;;;;;;;10.65;6.68;;;;;;;20.21;65.61;93988.53;4213271;28;20048;-60
2023/07/02 03:50:24;;;;;;;18.33;7.68;;;;;;;20.10;65.76;93981.41;4213752;28;20056;-60
2023/07/02 03:52:26;;;;;;;17.27;7.57;;;;;;;19.98;66.03;93977.97;4213179;28;20502;-57
2023/07/02 03:54:28;;;;;;;9.25;7.35;;;;;;;19.98;65.90;93975.31;4204822;28;20056;-58
2023/07/02 03:56:29;;;;;;;15.27;8.07;;;;;;;20.05;66.07;93979.47;4203552;28;20105;-58
2023/07/02 03:58:31;;;;;;;10.98;7.13;;;;;;;20.12;66.12;93981.19;4212640;28;20063;-59
2023/07/02 04:00:33;;;;;;;14.65;6.97;;;;;;;20.22;66.36;93986.72;4207153;28;20424;-59
2023/07/02 04:02:35;;;;;;;17.08;7.35;;;;;;;20.25;65.63;93980.91;4209357;28;20135;-60
2023/07/02 04:04:37;;;;;;;13.20;8.10;;;;;;;20.30;65.53;93981.00;4213933;28;20205;-60
2023/07/02 04:06:38;;;;;;;10.45;7.03;;;;;;;20.34;65.46;93979.47;4208338;28;20052;-59
2023/07/02 04:08:40;;;;;;;11.15;7.13;;;;;;;20.36;65.22;93984.56;4211892;28;20046;-59
2023/07/02 04:10:42;;;;;;;12.32;7.03;;;;;;;20.40;65.40;93986.53;4206216;28;20075;-58
2023/07/02 04:12:44;;;;;;;9.70;7.00;;;;;;;20.42;65.50;93988.97;4200131;28;20050;-60
2023/07/02 04:14:46;;;;;;;14.63;7.70;;;;;;;20.44;65.43;93994.84;4204622;28;20051;-58
2023/07/02 04:16:48;;;;;;;9.40;7.10;;;;;;;20.48;65.71;93996.00;4208014;28;20124;-58
2023/07/02 04:18:49;;;;;;;11.15;7.25;;;;;;;20.50;65.29;94001.88;4212431;28;20054;-59
2023/07/02 04:20:51;;;;;;;12.27;7.90;;;;;;;20.43;64.37;94011.84;4205755;28;20048;-59
2023/07/02 04:22:53;;;;;;;15.75;7.05;;;;;;;20.15;65.66;94015.28;4211743;28;20078;-59
2023/07/02 04:24:54;;;;;;;12.68;7.32;;;;;;;20.02;65.98;94017.13;4218490;28;20136;-59
2023/07/02 04:27:02;;;;;;;10.82;6.97;;;;;;;19.98;66.10;94021.34;4202327;28;20051;-59
2023/07/02 04:29:24;;;;;;;12.95;7.40;;;;;;;19.71;67.33;94026.31;4207585;28;20044;-58
2023/07/02 04:31:26;;;;;;;11.73;8.00;;;;;;;19.15;68.68;94027.66;4211971;28;20040;-59
2023/07/02 04:33:35;;;;;;;12.40;7.50;;;;;;;18.94;68.94;94034.28;4207022;28;20048;-56
2023/07/02 04:35:37;;;;;;;13.60;8.18;;;;;;;18.94;68.75;94034.28;4209811;28;20098;-58
2023/07/02 04:37:39;;;;;;;10.93;7.60;;;;;;;18.99;69.18;94040.53;4207203;28;20486;-59
2023/07/02 04:39:41;;;;;;;11.50;7.78;;;;;;;18.88;69.39;94045.81;4205191;28;20040;-59
2023/07/02 04:41:42;;;;;;;13.55;7.95;;;;;;;18.90;69.24;94049.03;4208322;28;20477;-57
2023/07/02 04:43:45;;;;;;;12.73;8.13;;;;;;;18.99;69.16;94048.50;4211134;28;20044;-59
2023/07/02 04:45:48;;;;;;;14.63;7.40;;;;;;;19.07;68.66;94050.00;4212461;28;20048;-59
2023/07/02 04:47:50;;;;;;;13.40;8.00;;;;;;;18.91;69.15;94051.47;4211819;28;20139;-59
2023/07/02 04:49:52;;;;;;;12.50;7.43;;;;;;;19.03;68.99;94052.28;4212741;28;20056;-58
2023/07/02 04:51:54;;;;;;;11.27;8.10;;;;;;;18.88;69.29;94049.25;4211540;28;20048;-59
2023/07/02 04:53:56;;;;;;;10.80;7.55;;;;;;;18.94;69.14;94053.66;4212573;28;20056;-59
2023/07/02 04:55:58;;;;;;;12.25;8.32;;;;;;;18.92;69.03;94055.75;4209500;28;20702;-63
2023/07/02 04:57:59;;;;;;;16.05;8.90;;;;;;;18.79;69.39;94062.03;4196621;28;20060;-58
2023/07/02 05:00:03;;;;;;;12.85;8.50;;;;;;;18.80;70.02;94060.22;4204757;28;20055;-57
2023/07/02 05:02:05;;;;;;;15.27;8.10;;;;;;;18.88;69.62;94054.56;4212717;28;20131;-59
2023/07/02 05:04:10;;;;;;;15.20;8.27;;;;;;;19.05;69.50;94054.75;4212457;28;20156;-59
2023/07/02 05:06:12;;;;;;;12.68;8.07;;;;;;;19.15;69.08;94062.97;4212214;28;20056;-57
2023/07/02 05:08:14;;;;;;;13.48;8.38;;;;;;;19.32;68.64;94059.66;4204856;28;20135;-56
2023/07/02 05:10:16;;;;;;;14.23;8.02;;;;;;;19.53;67.92;94055.63;4209607;28;20052;-59
2023/07/02 05:12:18;;;;;;;15.77;10.02;;;;;;;19.71;67.42;94062.72;4204306;28;20050;-59
2023/07/02 05:14:20;;;;;;;15.13;9.80;;;;;;;19.88;67.03;94063.63;4209060;28;20052;-59
2023/07/02 05:16:22;;;;;;;13.27;8.00;;;;;;;19.87;66.16;94063.88;4211634;28;20053;-59
2023/07/02 05:18:24;;;;;;;13.20;8.25;;;;;;;19.73;66.88;94069.41;4211423;28;20051;-61
2023/07/02 05:20:25;;;;;;;17.27;8.43;;;;;;;19.80;67.09;94069.31;4211583;28;20633;-57
2023/07/02 05:22:27;;;;;;;12.90;8.40;;;;;;;19.80;66.69;94067.44;4211751;28;20131;-58
2023/07/02 05:24:29;;;;;;;12.70;8.57;;;;;;;19.88;67.09;94066.28;4211977;28;20521;-58
2023/07/02 05:26:30;;;;;;;13.52;8.60;;;;;;;19.97;66.46;94062.25;4211608;28;20059;-59
2023/07/02 05:28:32;;;;;;;12.88;7.88;;;;;;;20.04;66.17;94064.78;4212304;28;20090;-59
2023/07/02 05:30:34;;;;;;;15.65;8.85;;;;;;;20.02;66.06;94058.88;4211674;28;20048;-58
2023/07/02 05:32:35;;;;;;;19.33;8.77;;;;;;;20.11;66.35;94065.47;4211839;28;20059;-60
2023/07/02 05:34:37;;;;;;;17.95;8.55;;;;;;;20.20;66.22;94050.78;4206708;28;20044;-59
2023/07/02 05:36:39;;;;;;;14.90;8.50;;;;;;;20.32;66.03;94055.25;4204797;28;20064;-59
2023/07/02 05:38:40;;;;;;;13.38;8.30;;;;;;;20.43;65.72;94065.03;4210191;28;20680;-60
2023/07/02 05:40:42;;;;;;;13.45;8.77;;;;;;;20.46;65.16;94072.56;4199123;28;20044;-59
2023/07/02 05:42:44;;;;;;;14.30;8.75;;;;;;;20.52;65.28;94079.63;4211401;28;20552;-59
2023/07/02 05:44:46;;;;;;;18.52;8.55;;;;;;;20.59;65.54;94080.31;4210652;28;20048;-60
2023/07/02 05:46:47;;;;;;;14.75;8.95;;;;;;;20.67;65.45;94076.44;4212201;28;20072;-61
2023/07/02 05:48:49;;;;;;;14.18;9.45;;;;;;;20.76;65.16;94079.56;4211602;28;20364;-60
2023/07/02 05:50:51;;;;;;;14.68;8.80;;;;;;;20.85;64.88;94076.28;4211229;28;20044;-61
2023/07/02 05:52:52;;;;;;;12.38;7.95;;;;;;;20.93;64.83;94083.09;4210776;28;20056;-58
2023/07/02 05:54:54;;;;;;;15.75;9.30;;;;;;;21.04;64.91;94081.41;4211818;28;20056;-60
2023/07/02 05:56:56;;;;;;;13.13;8.52;;;;;;;21.10;64.56;94076.97;4209405;28;20052;-61
2023/07/02 05:58:57;;;;;;;17.58;9.25;;;;;;;21.14;64.64;94081.56;4208039;28;20105;-60
2023/07/02 06:01:00;;;;;;;15.07;9.20;;;;;;;21.16;64.55;94084.81;4206613;28;20044;-59
2023/07/02 06:03:03;;;;;;;17.73;10.13;;;;;;;21.21;64.89;94076.94;4211828;28;20058;-60
2023/07/02 06:05:05;;;;;;;15.07;9.47;;;;;;;21.24;64.63;94071.09;4205570;28;20056;-59
2023/07/02 06:07:07;;;;;;;16.63;10.43;;;;;;;21.21;63.69;94068.13;4211453;28;20059;-57
2023/07/02 06:09:09;;;;;;;13.82;9.52;;;;;;;21.11;63.51;94066.09;4207431;28;20101;-59
2023/07/02 06:11:10;;;;;;;16.60;9.55;;;;;;;20.97;64.27;94070.09;4207045;28;20485;-60
2023/07/02 06:13:12;;;;;;;15.30;9.30;;;;;;;20.90;64.31;94067.56;4208848;28;20501;-59
2023/07/02 06:15:14;;;;;;;16.15;10.23;;;;;;;20.79;64.50;94063.13;4210814;28;20555;-62
2023/07/02 06:17:16;;;;;;;13.65;8.70;;;;;;;20.78;64.40;94056.16;4207583;28;20048;-59
2023/07/02 06:19:18;;;;;;;13.30;8.80;;;;;;;20.83;64.40;94053.59;4211327;28;20048;-55
2023/07/02 06:21:20;;;;;;;11.88;8.38;;;;;;;20.95;63.98;94053.53;4197018;28;20749;-59
2023/07/02 06:23:21;;;;;;;12.85;8.77;;;;;;;21.07;63.69;94052.44;4211306;28;20048;-59
2023/07/02 06:25:23;;;;;;;13.65;8.63;;;;;;;21.21;63.35;94052.16;4211785;28;20047;-60
2023/07/02 06:27:25;;;;;;;12.30;8.60;;;;;;;21.31;62.73;94046.97;4208851;28;20044;-60
2023/07/02 06:29:28;;;;;;;14.75;8.70;;;;;;;21.42;62.34;94047.97;4208236;28;20052;-57
2023/07/02 06:31:30;;;;;;;14.00;8.70;;;;;;;21.56;62.45;94043.94;4203242;28;20127;-60
2023/07/02 06:33:32;;;;;;;15.88;8.32;;;;;;;21.67;62.10;94039.56;4210084;28;20055;-61
2023/07/02 06:35:34;;;;;;;13.43;8.57;;;;;;;21.78;61.79;94044.00;4210103;28;20078;-62
2023/07/02 06:37:35;;;;;;;13.77;8.02;;;;;;;21.85;61.75;94039.31;4211975;28;20048;-57
2023/07/02 06:39:37;;;;;;;13.82;8.13;;;;;;;21.91;61.50;94042.84;4211441;28;20055;-59
2023/07/02 06:41:39;;;;;;;17.65;9.52;;;;;;;22.03;61.59;94040.91;4209953;28;20048;-58
2023/07/02 06:43:43;;;;;;;14.57;8.60;;;;;;;22.11;61.59;94044.19;4202490;28;20040;-60
2023/07/02 06:45:45;;;;;;;15.10;9.20;;;;;;;22.10;61.64;94040.72;4211032;28;20044;-59
2023/07/02 06:47:47;;;;;;;14.02;8.60;;;;;;;22.08;61.90;94038.28;4209511;28;20132;-61
2023/07/02 06:49:49;;;;;;;17.83;8.38;;;;;;;22.08;62.11;94032.16;4211206;28;20043;-59
2023/07/02 06:51:51;;;;;;;11.82;8.57;;;;;;;22.12;61.90;94030.59;4209994;28;20036;-59
2023/07/02 06:53:52;;;;;;;17.98;8.75;;;;;;;22.12;61.50;94033.28;4211076;28;20051;-59
2023/07/02 06:55:54;;;;;;;16.92;8.32;;;;;;;22.17;61.36;94035.19;4209781;28;20056;-61
2023/07/02 06:57:56;;;;;;;14.75;8.88;;;;;;;22.19;61.92;94038.44;4201339;28;20048;-60
2023/07/02 06:59:59;;;;;;;16.67;8.82;;;;;;;21.80;61.31;94041.91;4195009;28;20102;-60
2023/07/02 07:02:02;;;;;;;16.63;8.80;;;;;;;21.58;62.88;94055.16;4203990;28;20573;-62
2023/07/02 07:04:04;;;;;;;18.83;8.75;;;;;;;21.65;63.10;94045.16;4198728;28;20055;-59
2023/07/02 07:06:05;;;;;;;14.27;8.60;;;;;;;21.84;62.61;94047.56;4194637;28;20055;-58
2023/07/02 07:08:07;;;;;;;11.45;8.32;;;;;;;21.96;62.37;94050.13;4200056;28;20556;-61
2023/07/02 07:10:09;;;;;;;14.73;8.15;;;;;;;21.95;61.26;94049.31;4205327;28;20044;-56
2023/07/02 07:12:10;;;;;;;22.58;7.82;;;;;;;21.93;61.09;94046.09;4210365;28;20425;-59
2023/07/02 07:14:12;;;;;;;15.25;7.88;;;;;;;21.88;61.79;94044.16;4203754;28;20048;-60
2023/07/02 07:16:14;;;;;;;15.63;7.40;;;;;;;21.92;61.65;94044.47;4199152;28;20044;-56
2023/07/02 07:18:18;;;;;;;15.55;8.98;;;;;;;21.89;61.71;94045.75;4210826;28;20048;-60
2023/07/02 07:20:20;;;;;;;14.73;9.02;;;;;;;21.86;61.90;94048.13;4212533;28;20406;-61
2023/07/02 07:22:22;;;;;;;17.48;8.93;;;;;;;21.65;62.93;94045.16;4203141;28;20052;-60
2023/07/02 07:24:23;;;;;;;12.70;9.00;;;;;;;21.79;62.81;94040.31;4207780;28;20048;-56
2023/07/02 07:26:25;;;;;;;13.85;8.73;;;;;;;22.09;62.84;94044.41;4207419;28;20056;-57
2023/07/02 07:28:27;;;;;;;18.17;8.95;;;;;;;22.31;62.35;94054.38;4208003;28;20512;-60
2023/07/02 07:30:29;;;;;;;17.38;7.93;;;;;;;22.51;61.96;94048.47;4208938;28;20219;-58
2023/07/02 07:32:33;;;;;;;13.85;8.35;;;;;;;22.65;61.16;94042.50;4207244;28;20036;-60
2023/07/02 07:34:35;;;;;;;13.20;7.85;;;;;;;22.69;59.97;94038.28;4214264;28;20067;-59
2023/07/02 07:36:37;;;;;;;13.38;7.65;;;;;;;22.75;59.87;94039.13;4213541;28;20040;-59
2023/07/02 07:38:39;;;;;;;11.75;7.53;;;;;;;22.82;59.80;94037.06;4213341;28;20052;-56
2023/07/02 07:40:42;;;;;;;14.50;7.68;;;;;;;22.83;59.12;94032.53;4207567;28;20440;-57
2023/07/02 07:42:43;;;;;;;11.57;7.53;;;;;;;22.86;59.16;94032.00;4206302;28;20040;-57
2023/07/02 07:44:46;;;;;;;9.80;7.70;;;;;;;22.93;58.98;94031.81;4214000;28;20048;-58
2023/07/02 07:46:47;;;;;;;10.23;7.68;;;;;;;23.09;59.01;94036.28;4214334;28;20093;-59
2023/07/02 07:48:49;;;;;;;12.35;7.72;;;;;;;23.22;58.75;94033.19;4214412;28;20044;-58
2023/07/02 07:50:51;;;;;;;12.13;8.02;;;;;;;23.35;58.27;94039.19;4213744;28;20056;-57
2023/07/02 07:52:53;;;;;;;12.18;7.57;;;;;;;23.48;58.01;94044.91;4212924;28;20109;-59
2023/07/02 07:54:54;;;;;;;18.23;7.93;;;;;;;23.63;57.20;94043.41;4214112;28;20052;-59
2023/07/02 07:56:56;;;;;;;10.32;7.13;;;;;;;23.76;56.63;94044.88;4210824;28;20047;-58
2023/07/02 07:58:58;;;;;;;13.52;7.70;;;;;;;23.82;56.82;94043.84;4205446;28;20044;-59
2023/07/02 08:01:00;;;;;;;10.75;7.25;;;;;;;23.97;56.13;94040.47;4201391;28;20379;-59
2023/07/02 08:03:03;;;;;;;12.82;7.18;;;;;;;24.10;56.26;94042.69;4214121;28;20504;-62
2023/07/02 08:05:05;;;;;;;9.75;6.75;;;;;;;24.21;55.71;94038.19;4214465;28;20109;-62
2023/07/02 08:07:08;;;;;;;10.95;7.43;;;;;;;23.80;55.32;94038.75;4212625;28;20052;-57
2023/07/02 08:09:11;;;;;;;;;;;;;;;23.87;55.76;94044.69;4214067;28;20051;-58
2023/07/02 08:11:12;;;;;;;11.75;7.32;;;;;;;24.02;55.60;94045.84;4212510;28;20031;-60
2023/07/02 08:13:14;;;;;;;9.60;6.47;;;;;;;24.15;55.28;94042.69;4213806;28;20556;-57
2023/07/02 08:15:16;;;;;;;12.02;6.78;;;;;;;24.25;55.39;94041.97;4208737;28;20040;-60
2023/07/02 08:17:17;;;;;;;13.57;7.15;;;;;;;24.42;55.14;94047.13;4212832;28;20101;-58
2023/07/02 08:19:21;;;;;;;10.65;6.30;;;;;;;24.57;54.19;94039.19;4212608;28;20457;-60
2023/07/02 08:21:22;;;;;;;8.25;6.00;;;;;;;24.62;54.20;94041.06;4210537;28;20043;-57
2023/07/02 08:23:24;;;;;;;8.40;6.25;;;;;;;24.61;53.69;94036.78;4207119;28;20055;-60
2023/07/02 08:25:27;;;;;;;8.27;6.50;;;;;;;24.58;54.28;94037.31;4208762;28;20055;-58
2023/07/02 08:27:28;;;;;;;12.05;6.75;;;;;;;24.62;54.46;94043.75;4211142;28;20055;-56
2023/07/02 08:29:30;;;;;;;11.10;6.95;;;;;;;24.68;54.25;94038.16;4213215;28;20044;-56
2023/07/02 08:31:32;;;;;;;9.82;6.43;;;;;;;24.70;54.52;94036.00;4212431;28;20113;-60
2023/07/02 08:33:34;;;;;;;11.68;7.00;;;;;;;24.70;53.80;94038.69;4212873;28;20059;-58
2023/07/02 08:35:36;;;;;;;14.63;6.38;;;;;;;24.81;54.19;94031.50;4210845;28;20048;-59
2023/07/02 08:37:37;;;;;;;10.40;7.32;;;;;;;24.91;53.78;94034.19;4213390;28;20595;-59
2023/07/02 08:39:43;;;;;;;12.70;6.38;;;;;;;24.86;53.88;94033.38;4213689;28;20048;-59
2023/07/02 08:41:46;;;;;;;12.80;6.72;;;;;;;24.61;54.33;94034.91;4211941;28;20047;-61
2023/07/02 08:43:48;;;;;;;8.48;6.60;;;;;;;24.60;54.27;94037.84;4212894;28;20048;-59
2023/07/02 08:45:50;;;;;;;9.48;6.72;;;;;;;24.67;54.04;94035.72;4212706;28;20055;-58
2023/07/02 08:47:56;;;;;;;10.30;6.00;;;;;;;24.69;53.91;94031.75;4212358;28;20060;-58
2023/07/02 08:49:58;;;;;;;10.90;6.43;;;;;;;24.71;53.78;94031.44;4212362;28;20043;-57
2023/07/02 08:52:00;;;;;;;13.32;6.70;;;;;;;24.72;53.99;94036.56;4211090;28;20048;-57
2023/07/02 08:54:02;;;;;;;10.63;7.78;;;;;;;24.75;53.70;94029.06;4212561;28;20093;-58
2023/07/02 08:56:04;;;;;;;9.38;6.80;;;;;;;24.94;53.84;94032.88;4208663;28;21645;-57
2023/07/02 08:58:06;;;;;;;11.50;7.05;;;;;;;24.94;54.41;94032.88;4197264;28;20542;-57
2023/07/02 09:00:10;;;;;;;16.50;7.40;;;;;;;25.11;54.14;94029.94;4206731;28;20060;-59
2023/07/02 09:02:11;;;;;;;11.02;6.68;;;;;;;25.26;53.79;94024.63;4199488;28;20256;-59
2023/07/02 09:04:23;;;;;;;11.20;6.85;;;;;;;25.26;52.14;94030.00;4196338;28;20087;-60
2023/07/02 09:06:25;;;;;;;11.00;6.65;;;;;;;25.36;52.76;94028.38;4196065;28;20395;-57
2023/07/02 09:08:27;;;;;;;14.70;6.90;;;;;;;25.50;52.33;94027.56;4208288;28;20611;-60
2023/07/02 09:10:30;;;;;;;11.27;6.68;;;;;;;25.64;52.10;94021.66;4211463;28;20586;-59
2023/07/02 09:12:34;;;;;;;10.50;6.63;;;;;;;25.63;52.20;94023.56;4211653;28;20079;-57
2023/07/02 09:14:36;;;;;;;13.60;6.82;;;;;;;25.78;51.80;94030.78;4203208;28;20048;-57
2023/07/02 09:16:40;;;;;;;12.13;6.47;;;;;;;25.68;50.11;94031.63;4208619;28;20056;-61
2023/07/02 09:18:42;;;;;;;8.55;5.68;;;;;;;25.68;50.88;94022.75;4211385;28;20150;-61
2023/07/02 09:20:43;;;;;;;9.65;5.75;;;;;;;25.74;50.98;94025.16;4208757;28;20715;-59
2023/07/02 09:22:54;;;;;;;11.07;6.30;;;;;;;25.66;51.64;94024.88;4205791;28;20051;-56
2023/07/02 09:25:00;;;;;;;9.00;6.18;;;;;;;25.69;51.61;94019.78;4207291;28;20052;-57
2023/07/02 09:27:02;;;;;;;8.82;6.32;;;;;;;25.76;51.12;94014.16;4205760;28;20044;-60
2023/07/02 09:29:03;;;;;;;10.55;5.93;;;;;;;25.81;51.15;94018.69;4205973;28;20052;-58
2023/07/02 09:31:05;;;;;;;9.80;6.00;;;;;;;25.83;51.77;94016.56;4207462;28;20051;-59